Time;durP1;ratioP1;P1;durP2;ratioP2;P2;SDS_P1;SDS_P2;PMS_P1;PMS_P2;Temp;Humidity;BMP_temperature;BMP_pressure;BME280_temperature;BME280_humidity;BME280_pressure;Samples;Min_cycle;Max_cycle;Signal;HPM_P1;HPM_P2
2022/01/09 00:01:33;;;;;;;52.20;46.53;;;16.90;61.10;;;;;;5004733;27;89686;-73
2022/01/09 00:03:59;;;;;;;51.50;46.00;;;16.80;60.90;;;;;;4987661;27;90069;-72
2022/01/09 00:06:24;;;;;;;51.63;46.05;;;16.80;61.50;;;;;;5001045;27;94474;-73
2022/01/09 00:08:50;;;;;;;53.88;46.55;;;16.80;61.50;;;;;;5008482;27;89502;-72
2022/01/09 00:11:18;;;;;;;52.35;46.63;;;16.80;61.10;;;;;;5007393;27;89663;-73
2022/01/09 00:13:45;;;;;;;51.60;46.25;;;16.80;61.50;;;;;;5004113;27;91028;-72
2022/01/09 00:16:11;;;;;;;51.15;45.88;;;16.80;61.40;;;;;;5002491;27;89783;-72
2022/01/09 00:18:36;;;;;;;51.50;46.15;;;16.70;62.10;;;;;;5007668;27;90920;-72
2022/01/09 00:21:06;;;;;;;51.25;45.75;;;16.70;61.50;;;;;;5007623;27;89705;-73
2022/01/09 00:23:32;;;;;;;51.80;46.22;;;16.70;61.60;;;;;;5011441;27;90527;-73
2022/01/09 00:25:59;;;;;;;51.80;46.20;;;16.60;61.80;;;;;;5012085;27;90174;-73
2022/01/09 00:28:25;;;;;;;51.60;46.08;;;16.60;61.30;;;;;;5015726;27;89823;-73
2022/01/09 00:30:50;;;;;;;51.70;46.30;;;16.60;61.40;;;;;;5014104;27;88904;-73
2022/01/09 00:33:16;;;;;;;51.42;45.78;;;16.60;61.80;;;;;;5000816;28;89654;-72
2022/01/09 00:35:41;;;;;;;51.30;45.83;;;16.50;61.80;;;;;;5016238;27;89560;-73
2022/01/09 00:38:07;;;;;;;51.85;46.10;;;16.60;61.80;;;;;;5017061;27;91099;-73
2022/01/09 00:40:33;;;;;;;51.65;46.17;;;16.60;61.50;;;;;;4993321;27;89692;-72
2022/01/09 00:42:58;;;;;;;52.58;46.50;;;16.50;61.90;;;;;;5008706;27;89454;-73
2022/01/09 00:45:24;;;;;;;51.83;46.28;;;16.50;61.60;;;;;;5001260;27;90556;-73
2022/01/09 00:47:50;;;;;;;51.30;46.03;;;16.50;61.70;;;;;;4998567;27;90292;-72
2022/01/09 00:50:16;;;;;;;51.50;46.00;;;16.40;61.70;;;;;;4989671;27;90269;-72
2022/01/09 00:52:41;;;;;;;53.92;46.33;;;16.40;62.00;;;;;;4981347;27;92079;-72
2022/01/09 00:55:08;;;;;;;53.92;46.38;;;16.40;61.90;;;;;;4999787;27;89878;-73
2022/01/09 00:57:47;;;;;;;51.40;45.90;;;16.40;61.90;;;;;;4010316;27;10086000;-73
2022/01/09 01:00:14;;;;;;;51.28;45.95;;;16.40;62.00;;;;;;1683047;27;10093936;-73
2022/01/09 01:02:41;;;;;;;51.78;46.30;;;16.40;61.90;;;;;;5000940;27;92028;-73
2022/01/09 01:05:07;;;;;;;51.35;45.95;;;16.30;61.50;;;;;;5017840;27;90585;-73
2022/01/09 01:07:33;;;;;;;51.25;45.75;;;16.30;61.90;;;;;;5016301;27;89284;-72
2022/01/09 01:09:59;;;;;;;53.00;46.22;;;16.30;62.20;;;;;;5013998;27;89610;-72
2022/01/09 01:12:26;;;;;;;51.42;45.80;;;16.30;61.60;;;;;;5014103;27;89479;-72
2022/01/09 01:14:52;;;;;;;51.33;45.80;;;16.20;61.40;;;;;;5010058;27;89418;-73
2022/01/09 01:17:18;;;;;;;51.47;45.88;;;16.20;61.80;;;;;;5012645;27;89057;-72
2022/01/09 01:19:44;;;;;;;51.10;45.80;;;16.20;62.10;;;;;;4987922;27;89922;-73
2022/01/09 01:22:10;;;;;;;51.20;45.75;;;16.10;61.90;;;;;;4999443;27;92311;-72
2022/01/09 01:24:37;;;;;;;51.35;45.85;;;16.10;62.40;;;;;;5007386;27;89622;-73
2022/01/09 01:27:03;;;;;;;51.17;45.88;;;16.10;62.10;;;;;;5013418;27;92530;-73
2022/01/09 01:29:29;;;;;;;51.45;45.95;;;16.00;62.00;;;;;;5005362;27;90155;-72
2022/01/09 01:31:54;;;;;;;51.22;45.72;;;16.00;62.20;;;;;;5000888;27;90505;-72
2022/01/09 01:34:20;;;;;;;51.30;45.80;;;16.00;62.60;;;;;;4998728;27;91332;-73
2022/01/09 01:36:46;;;;;;;51.50;45.88;;;16.00;62.10;;;;;;5001635;27;89509;-73
2022/01/09 01:39:11;;;;;;;51.00;45.60;;;16.00;62.30;;;;;;4984833;27;90717;-72
2022/01/09 01:41:37;;;;;;;51.30;45.90;;;16.00;62.30;;;;;;5002111;27;95971;-73
2022/01/09 01:44:07;;;;;;;51.25;45.75;;;15.90;62.70;;;;;;4989172;27;91758;-73
2022/01/09 01:46:32;;;;;;;51.33;45.85;;;15.90;62.30;;;;;;5003475;27;89933;-73
2022/01/09 01:48:58;;;;;;;50.90;45.70;;;15.90;62.20;;;;;;5004837;27;89325;-73
2022/01/09 01:51:24;;;;;;;52.08;46.08;;;15.90;62.50;;;;;;5006242;27;90527;-73
2022/01/09 01:53:54;;;;;;;51.65;46.05;;;15.90;62.30;;;;;;5004283;27;91479;-73
2022/01/09 01:56:20;;;;;;;51.05;45.60;;;15.90;62.40;;;;;;5001402;27;92680;-73
2022/01/09 01:58:47;;;;;;;51.33;45.83;;;15.80;62.30;;;;;;5002769;27;89547;-73
2022/01/09 02:01:13;;;;;;;50.38;45.08;;;15.80;62.40;;;;;;5005853;27;89352;-73
2022/01/09 02:03:38;;;;;;;50.80;45.40;;;15.80;62.70;;;;;;5005270;27;89426;-73
2022/01/09 02:06:04;;;;;;;50.97;45.55;;;15.70;62.30;;;;;;4998991;27;91597;-73
2022/01/09 02:08:31;;;;;;;51.13;45.75;;;15.70;62.70;;;;;;5002820;27;88588;-73
2022/01/09 02:10:57;;;;;;;50.97;45.53;;;15.80;63.10;;;;;;5003110;27;90426;-73
2022/01/09 02:13:22;;;;;;;51.20;45.72;;;15.80;62.80;;;;;;4984259;27;91925;-73
2022/01/09 02:15:48;;;;;;;51.47;45.92;;;15.90;62.50;;;;;;5009149;27;92380;-73
2022/01/09 02:18:20;;;;;;;51.00;45.60;;;16.00;62.00;;;;;;5006953;27;90558;-73
2022/01/09 02:20:47;;;;;;;;;;;16.10;61.60;;;;;;5000138;27;94449;-73
2022/01/09 02:23:14;;;;;;;51.00;45.55;;;16.20;61.60;;;;;;5009827;27;89666;-72
2022/01/09 02:25:41;;;;;;;50.30;45.00;;;16.30;61.30;;;;;;5011637;27;89677;-72
2022/01/09 02:28:09;;;;;;;50.72;45.42;;;16.30;61.50;;;;;;5007109;27;89726;-72
2022/01/09 02:30:36;;;;;;;51.45;45.95;;;16.30;60.90;;;;;;5010782;27;90674;-73
2022/01/09 02:33:06;;;;;;;51.03;45.53;;;16.40;60.80;;;;;;5009870;27;89119;-73
2022/01/09 02:35:33;;;;;;;50.92;45.53;;;16.40;61.00;;;;;;4992793;27;89856;-72
2022/01/09 02:37:59;;;;;;;50.90;45.50;;;16.50;60.90;;;;;;5004386;27;91089;-73
2022/01/09 02:40:24;;;;;;;51.35;46.00;;;16.50;60.60;;;;;;4986629;27;91891;-72
2022/01/09 02:42:51;;;;;;;51.17;45.75;;;16.60;60.50;;;;;;5010140;27;91934;-73
2022/01/09 02:45:22;;;;;;;50.75;45.53;;;16.50;60.60;;;;;;5000873;27;95773;-72
2022/01/09 02:47:49;;;;;;;50.97;45.58;;;16.60;60.70;;;;;;5004206;27;89786;-73
2022/01/09 02:53:12;;;;;;;51.20;45.67;;;16.70;60.30;;;;;;5004912;27;91581;-72
2022/01/09 02:55:38;;;;;;;51.17;45.70;;;16.80;59.80;;;;;;5009147;27;89717;-73
2022/01/09 02:58:04;;;;;;;51.10;45.70;;;16.90;59.10;;;;;;5013859;27;95208;-73
2022/01/09 03:00:32;;;;;;;50.67;45.42;;;16.80;59.60;;;;;;5004246;27;89237;-73
2022/01/09 03:02:59;;;;;;;51.08;45.70;;;16.80;59.80;;;;;;5010850;27;89766;-72
2022/01/09 03:05:26;;;;;;;50.85;45.45;;;16.80;59.80;;;;;;5011052;27;91692;-73
2022/01/09 03:07:52;;;;;;;50.40;45.30;;;16.80;59.50;;;;;;4999437;27;91706;-73
2022/01/09 03:10:20;;;;;;;50.80;45.65;;;16.80;59.30;;;;;;5010616;27;90473;-73
2022/01/09 03:12:48;;;;;;;50.75;45.45;;;16.80;59.60;;;;;;4992259;27;90798;-73
2022/01/09 03:15:14;;;;;;;50.85;45.55;;;16.80;59.20;;;;;;4999770;27;91276;-72
2022/01/09 03:17:41;;;;;;;51.05;45.55;;;16.80;59.60;;;;;;5004412;27;90626;-73
2022/01/09 03:20:09;;;;;;;50.83;45.45;;;16.70;58.80;;;;;;5003490;27;89618;-72
2022/01/09 03:22:35;;;;;;;50.72;45.53;;;16.70;59.20;;;;;;5008559;27;89247;-72
2022/01/09 03:25:01;;;;;;;50.63;45.22;;;16.60;59.50;;;;;;5009096;27;89626;-73
2022/01/09 03:27:26;;;;;;;50.70;45.50;;;16.50;59.30;;;;;;4980274;27;90902;-73
2022/01/09 03:29:52;;;;;;;50.72;45.42;;;16.50;59.60;;;;;;5007339;27;91884;-73
2022/01/09 03:32:17;;;;;;;50.83;45.50;;;16.50;59.60;;;;;;5008096;27;89909;-73
2022/01/09 03:34:43;;;;;;;50.90;45.65;;;16.50;59.80;;;;;;4980978;27;90003;-73
2022/01/09 03:37:09;;;;;;;50.83;45.53;;;16.40;59.50;;;;;;5005887;27;90238;-73
2022/01/09 03:39:34;;;;;;;50.97;45.55;;;16.30;59.80;;;;;;5001737;27;89558;-73
2022/01/09 03:42:00;;;;;;;50.70;45.40;;;16.30;59.90;;;;;;5001522;27;89804;-73
2022/01/09 03:44:27;;;;;;;51.25;45.72;;;16.30;60.00;;;;;;5007497;27;89668;-73
2022/01/09 03:46:54;;;;;;;50.65;45.42;;;16.30;59.70;;;;;;5007244;27;89102;-73
2022/01/09 03:49:20;;;;;;;50.58;45.38;;;16.30;60.00;;;;;;5007431;27;89455;-73
2022/01/09 03:51:50;;;;;;;50.83;45.53;;;16.30;60.10;;;;;;5006969;27;89518;-73
2022/01/09 03:54:16;;;;;;;50.50;45.40;;;16.20;59.90;;;;;;5010810;27;90204;-73
2022/01/09 03:56:42;;;;;;;50.95;45.55;;;16.20;60.20;;;;;;5003925;27;89545;-72
2022/01/09 03:59:07;;;;;;;50.33;45.28;;;16.20;60.20;;;;;;5011794;27;89332;-73
2022/01/09 04:01:33;;;;;;;50.60;45.50;;;16.20;60.20;;;;;;5005497;27;90242;-73
2022/01/09 04:03:59;;;;;;;50.50;45.35;;;16.10;60.40;;;;;;5012383;27;89469;-72
2022/01/09 04:06:24;;;;;;;50.97;45.63;;;16.10;60.40;;;;;;5004244;27;89509;-72
2022/01/09 04:08:52;;;;;;;50.78;45.53;;;16.10;60.00;;;;;;4998083;27;90528;-72
2022/01/09 04:11:23;;;;;;;50.72;45.53;;;16.10;60.10;;;;;;5006205;27;95975;-73
2022/01/09 04:13:49;;;;;;;50.95;45.47;;;16.00;60.50;;;;;;4999011;27;91336;-73
2022/01/09 04:16:15;;;;;;;50.95;45.65;;;16.00;60.00;;;;;;5006051;27;90657;-73
2022/01/09 04:18:41;;;;;;;50.95;45.65;;;15.90;60.10;;;;;;5008131;27;92215;-72
2022/01/09 04:21:06;;;;;;;50.65;45.45;;;15.90;60.80;;;;;;5000951;27;89270;-73
2022/01/09 04:23:32;;;;;;;50.92;45.70;;;15.90;60.80;;;;;;5012353;27;89834;-73
2022/01/09 04:25:58;;;;;;;50.33;45.13;;;15.90;60.30;;;;;;5016558;27;91499;-73
2022/01/09 04:28:23;;;;;;;50.70;45.42;;;15.80;60.70;;;;;;5013062;27;89407;-73
2022/01/09 04:30:49;;;;;;;50.78;45.30;;;15.80;60.70;;;;;;5019128;27;90856;-73
2022/01/09 04:33:15;;;;;;;50.85;45.65;;;15.80;60.70;;;;;;5014197;27;88722;-73
2022/01/09 04:35:41;;;;;;;50.55;45.28;;;15.70;60.90;;;;;;5018530;27;88446;-73
2022/01/09 04:38:08;;;;;;;50.38;45.17;;;15.70;60.90;;;;;;5015395;27;89996;-72
2022/01/09 04:40:33;;;;;;;51.10;45.67;;;15.70;60.80;;;;;;5004425;27;91189;-73
2022/01/09 04:43:01;;;;;;;50.70;45.58;;;15.70;61.10;;;;;;5006168;27;90359;-73
2022/01/09 04:45:28;;;;;;;50.85;45.55;;;15.70;61.10;;;;;;5002051;27;89199;-73
2022/01/09 04:47:58;;;;;;;50.60;45.40;;;15.70;61.10;;;;;;5006319;27;90900;-73
2022/01/09 04:50:25;;;;;;;50.92;45.53;;;15.70;60.90;;;;;;4988177;27;93431;-73
2022/01/09 04:53:04;;;;;;;50.47;45.28;;;15.70;61.50;;;;;;5009127;27;89662;-73
2022/01/09 04:55:30;;;;;;;50.85;45.55;;;15.70;60.60;;;;;;5008762;27;89535;-73
2022/01/09 04:57:56;;;;;;;50.42;45.25;;;15.70;60.60;;;;;;5003142;27;89778;-73
2022/01/09 05:00:23;;;;;;;50.67;45.40;;;15.70;61.00;;;;;;4980536;27;90959;-72
2022/01/09 05:02:48;;;;;;;50.75;45.40;;;15.60;61.00;;;;;;5012154;27;89848;-73
2022/01/09 05:05:15;;;;;;;51.25;45.75;;;15.60;61.60;;;;;;5008370;27;89621;-73
2022/01/09 05:07:41;;;;;;;50.55;45.35;;;15.70;61.30;;;;;;5001948;27;90695;-73
2022/01/09 05:10:09;;;;;;;50.63;45.47;;;15.80;61.30;;;;;;5009055;27;95081;-73
2022/01/09 05:12:35;;;;;;;50.45;45.25;;;15.90;61.20;;;;;;5011736;27;90973;-73
2022/01/09 05:15:01;;;;;;;50.63;45.33;;;16.10;60.90;;;;;;4984160;27;89617;-73
2022/01/09 05:17:27;;;;;;;50.25;45.13;;;16.20;60.60;;;;;;5011156;27;89917;-73
2022/01/09 05:19:57;;;;;;;50.60;45.40;;;16.40;60.60;;;;;;5004959;27;89017;-73
2022/01/09 05:22:29;;;;;;;51.08;45.65;;;16.50;60.20;;;;;;5005074;27;89681;-72
2022/01/09 05:24:58;;;;;;;50.58;45.30;;;16.70;59.80;;;;;;5014759;27;89425;-73
2022/01/09 05:27:24;;;;;;;50.33;45.22;;;16.80;59.70;;;;;;5016169;27;90240;-73
2022/01/09 05:29:51;;;;;;;50.97;45.67;;;17.00;59.50;;;;;;5001512;27;91888;-73
2022/01/09 05:32:17;;;;;;;51.17;45.78;;;17.10;59.40;;;;;;5011451;27;95734;-73
2022/01/09 05:34:43;;;;;;;51.03;45.72;;;17.20;59.10;;;;;;4993033;27;90219;-73
2022/01/09 05:37:08;;;;;;;51.30;45.95;;;17.40;58.60;;;;;;4987569;27;90299;-72
2022/01/09 05:39:34;;;;;;;51.35;45.90;;;17.60;58.30;;;;;;5004215;27;89792;-73
2022/01/09 05:42:06;;;;;;;50.90;45.60;;;17.60;58.10;;;;;;4991551;27;93652;-72
2022/01/09 05:44:32;;;;;;;51.15;45.85;;;17.70;58.10;;;;;;4978893;27;92228;-73
2022/01/09 05:46:59;;;;;;;50.85;45.55;;;17.80;57.80;;;;;;5002916;27;93842;-72
2022/01/09 05:49:24;;;;;;;51.17;45.88;;;17.90;57.60;;;;;;5003172;27;90147;-72
2022/01/09 05:51:50;;;;;;;51.13;45.78;;;17.90;57.60;;;;;;5009521;27;89678;-73
2022/01/09 05:54:16;;;;;;;51.20;45.92;;;18.00;57.40;;;;;;5006666;27;89808;-73
2022/01/09 05:56:41;;;;;;;51.17;45.78;;;18.10;57.20;;;;;;5000830;27;91474;-73
2022/01/09 05:59:07;;;;;;;50.63;45.42;;;18.10;57.10;;;;;;5009328;27;91157;-73
2022/01/09 06:01:34;;;;;;;50.75;45.55;;;18.20;57.10;;;;;;5013233;27;89594;-73
2022/01/09 06:04:00;;;;;;;51.40;45.95;;;18.20;56.80;;;;;;4995496;27;90328;-72
2022/01/09 06:06:25;;;;;;;51.25;45.97;;;18.20;56.60;;;;;;5009418;27;90803;-73
2022/01/09 06:08:51;;;;;;;51.25;45.85;;;18.30;56.90;;;;;;4999445;27;90412;-73
2022/01/09 06:11:17;;;;;;;51.42;46.03;;;18.30;56.70;;;;;;5005689;27;90143;-73
2022/01/09 06:13:42;;;;;;;51.10;45.80;;;18.30;56.60;;;;;;5001116;27;94448;-73
2022/01/09 06:16:08;;;;;;;51.60;46.10;;;18.30;56.40;;;;;;5013170;27;89805;-73
2022/01/09 06:18:34;;;;;;;51.35;45.92;;;18.30;56.50;;;;;;5013872;27;90918;-73
2022/01/09 06:20:59;;;;;;;51.55;46.05;;;18.30;56.50;;;;;;4998160;27;90844;-73
2022/01/09 06:23:25;;;;;;;50.58;45.38;;;18.30;56.70;;;;;;5009001;27;89509;-73
2022/01/09 06:25:51;;;;;;;51.42;45.97;;;18.20;56.60;;;;;;5010444;27;90319;-73
2022/01/09 06:28:17;;;;;;;51.25;45.75;;;18.20;56.60;;;;;;5001800;27;89652;-73
2022/01/09 06:30:44;;;;;;;51.70;46.28;;;18.20;57.00;;;;;;5002578;27;91182;-73
2022/01/09 06:33:10;;;;;;;51.13;45.72;;;18.20;56.70;;;;;;5005255;27;89886;-73
2022/01/09 06:35:36;;;;;;;50.72;45.45;;;18.10;56.60;;;;;;5007688;27;91429;-72
2022/01/09 06:38:02;;;;;;;51.05;45.70;;;18.10;56.90;;;;;;5008507;27;90071;-73
2022/01/09 06:40:28;;;;;;;51.40;45.90;;;18.10;56.80;;;;;;5006575;27;90137;-72
2022/01/09 06:42:53;;;;;;;51.38;45.83;;;18.00;57.00;;;;;;5003661;27;89365;-73
2022/01/09 06:45:21;;;;;;;51.03;45.65;;;18.00;57.00;;;;;;5006192;27;91746;-73
2022/01/09 06:47:48;;;;;;;51.10;45.85;;;17.90;57.00;;;;;;5007694;27;90889;-73
2022/01/09 06:50:14;;;;;;;50.75;45.45;;;17.80;57.20;;;;;;5016320;27;91503;-72
2022/01/09 06:52:41;;;;;;;51.40;46.00;;;17.80;57.10;;;;;;5011152;27;90141;-72
2022/01/09 06:55:07;;;;;;;51.25;45.85;;;17.80;57.10;;;;;;5005437;27;90312;-72
2022/01/09 06:57:33;;;;;;;51.08;45.67;;;17.80;57.50;;;;;;5000713;27;90275;-73
2022/01/09 06:59:59;;;;;;;51.33;45.90;;;17.70;57.20;;;;;;5003452;27;89696;-73
2022/01/09 07:02:25;;;;;;;50.85;45.53;;;17.70;57.20;;;;;;5007846;27;90985;-73
2022/01/09 07:04:50;;;;;;;51.15;45.75;;;17.70;57.20;;;;;;5004309;27;93343;-73
2022/01/09 07:07:16;;;;;;;50.28;45.20;;;17.60;57.10;;;;;;5015564;27;89927;-73
2022/01/09 07:09:41;;;;;;;50.80;45.50;;;17.50;57.50;;;;;;5008256;27;90613;-72
2022/01/09 07:12:09;;;;;;;50.95;45.63;;;17.50;57.40;;;;;;5007564;27;89553;-72
2022/01/09 07:14:35;;;;;;;50.90;45.58;;;17.40;57.60;;;;;;5001999;27;94662;-73
2022/01/09 07:17:01;;;;;;;50.67;45.45;;;17.40;57.60;;;;;;5005952;27;94544;-72
2022/01/09 07:19:27;;;;;;;51.17;45.75;;;17.30;57.90;;;;;;5002823;27;89650;-72
2022/01/09 07:21:53;;;;;;;50.85;45.55;;;17.30;58.00;;;;;;5003455;27;94298;-72
2022/01/09 07:24:18;;;;;;;51.03;45.72;;;17.20;58.10;;;;;;5016005;27;90139;-73
2022/01/09 07:26:44;;;;;;;51.13;45.75;;;17.20;58.00;;;;;;5007071;27;90073;-73
2022/01/09 07:29:10;;;;;;;50.92;45.67;;;17.10;58.10;;;;;;5014001;27;89286;-72
2022/01/09 07:31:35;;;;;;;50.50;45.30;;;17.10;58.30;;;;;;5004732;27;96968;-72
2022/01/09 07:34:01;;;;;;;50.72;45.42;;;17.10;58.30;;;;;;5009907;27;92654;-72
2022/01/09 07:36:27;;;;;;;50.67;45.47;;;17.10;58.20;;;;;;5009018;27;90196;-72
2022/01/09 07:38:52;;;;;;;50.90;45.65;;;17.10;58.30;;;;;;5011188;27;89804;-72
2022/01/09 07:41:18;;;;;;;50.65;45.45;;;17.10;58.10;;;;;;5001432;27;90574;-72
2022/01/09 07:43:44;;;;;;;51.17;45.78;;;17.20;58.20;;;;;;5013078;27;89603;-72
2022/01/09 07:46:10;;;;;;;50.70;45.55;;;17.20;58.30;;;;;;5009427;27;91650;-72
2022/01/09 07:48:35;;;;;;;50.60;45.28;;;17.20;58.00;;;;;;5002558;27;90053;-73
2022/01/09 07:51:01;;;;;;;50.95;45.65;;;17.30;57.90;;;;;;5003507;27;89519;-73
2022/01/09 07:53:27;;;;;;;50.80;45.50;;;17.40;58.10;;;;;;5014117;27;90911;-73
2022/01/09 07:55:52;;;;;;;50.72;45.35;;;17.40;57.60;;;;;;5002042;27;90600;-73
2022/01/09 07:58:19;;;;;;;50.47;45.30;;;17.50;57.60;;;;;;5008492;27;90963;-72
2022/01/09 08:00:44;;;;;;;50.58;45.45;;;17.50;57.50;;;;;;5007819;27;91216;-73
2022/01/09 08:03:14;;;;;;;50.83;45.63;;;17.50;57.50;;;;;;5003896;27;89791;-72
2022/01/09 08:05:40;;;;;;;50.85;45.55;;;17.50;57.50;;;;;;5004872;27;90813;-72
2022/01/09 08:08:06;;;;;;;50.85;45.55;;;17.50;57.30;;;;;;5005833;27;89901;-73
2022/01/09 08:10:32;;;;;;;50.55;45.33;;;17.50;57.40;;;;;;5003494;27;91284;-73
2022/01/09 08:13:00;;;;;;;51.00;45.70;;;17.50;57.40;;;;;;5003713;27;89417;-72
2022/01/09 08:15:28;;;;;;;51.63;46.00;;;17.40;57.10;;;;;;4973360;27;90351;-72
2022/01/09 08:17:54;;;;;;;51.20;45.70;;;17.40;57.30;;;;;;5001614;27;89692;-72
2022/01/09 08:20:20;;;;;;;51.00;45.65;;;17.40;57.30;;;;;;5004917;27;91156;-72
2022/01/09 08:22:46;;;;;;;51.47;45.97;;;17.40;57.40;;;;;;5006355;27;90938;-72
2022/01/09 08:25:14;;;;;;;50.67;45.47;;;17.40;57.30;;;;;;5015696;27;89959;-73
2022/01/09 08:27:40;;;;;;;51.35;45.85;;;17.30;57.50;;;;;;5007206;27;89733;-72
2022/01/09 08:30:07;;;;;;;50.67;45.33;;;17.30;57.80;;;;;;5001307;27;91135;-72
2022/01/09 08:32:34;;;;;;;50.80;45.53;;;17.30;58.20;;;;;;5010904;27;89468;-72
2022/01/09 08:35:01;;;;;;;51.08;45.53;;;17.20;57.70;;;;;;4989720;27;89800;-73
2022/01/09 08:37:26;;;;;;;51.03;45.65;;;17.20;57.80;;;;;;4999551;27;91362;-73
2022/01/09 08:39:52;;;;;;;51.22;45.83;;;17.30;57.70;;;;;;5010090;27;91622;-72
2022/01/09 08:42:18;;;;;;;50.97;45.50;;;17.30;57.40;;;;;;4996549;27;90679;-72
2022/01/09 08:44:43;;;;;;;50.85;45.65;;;17.30;57.90;;;;;;5008415;27;91893;-72
2022/01/09 08:47:09;;;;;;;50.85;45.55;;;17.30;57.30;;;;;;5003804;27;91068;-73
2022/01/09 08:49:35;;;;;;;50.97;45.67;;;17.40;57.50;;;;;;5007318;27;90996;-72
2022/01/09 08:52:01;;;;;;;50.92;45.65;;;17.50;57.50;;;;;;5004619;27;90530;-72
2022/01/09 08:54:27;;;;;;;51.10;45.80;;;17.50;57.20;;;;;;5016578;27;90015;-72
2022/01/09 08:56:53;;;;;;;51.03;45.63;;;17.50;57.10;;;;;;5005655;27;89861;-72
2022/01/09 08:59:19;;;;;;;50.88;45.58;;;17.60;57.10;;;;;;5006877;27;89968;-72
2022/01/09 09:01:45;;;;;;;51.35;45.95;;;17.60;57.00;;;;;;5005621;27;89848;-73
2022/01/09 09:04:11;;;;;;;50.67;45.45;;;17.60;57.10;;;;;;5000129;27;89678;-72
2022/01/09 09:06:37;;;;;;;51.17;45.63;;;17.60;56.80;;;;;;4991996;27;90748;-72
2022/01/09 09:09:03;;;;;;;51.20;45.80;;;17.60;56.80;;;;;;4998986;27;89758;-72
2022/01/09 09:11:28;;;;;;;51.60;46.08;;;17.70;56.90;;;;;;5006799;27;90699;-72
2022/01/09 09:13:54;;;;;;;51.08;45.80;;;17.60;56.50;;;;;;4989189;27;91086;-72
2022/01/09 09:16:20;;;;;;;50.85;45.60;;;17.60;56.80;;;;;;5008674;27;90812;-73
2022/01/09 09:18:48;;;;;;;51.33;45.92;;;17.60;56.70;;;;;;4999810;27;89860;-73
2022/01/09 09:21:14;;;;;;;51.13;45.72;;;17.60;56.80;;;;;;5010562;27;90260;-73
2022/01/09 09:23:40;;;;;;;50.78;45.58;;;17.60;56.60;;;;;;5001155;27;91939;-72
2022/01/09 09:26:05;;;;;;;51.38;45.88;;;17.60;56.90;;;;;;4999510;27;90302;-72
2022/01/09 09:28:31;;;;;;;51.72;46.20;;;17.50;57.20;;;;;;5007032;27;90174;-73
2022/01/09 09:30:57;;;;;;;50.97;45.67;;;17.50;56.90;;;;;;4999044;27;91507;-73
2022/01/09 09:33:23;;;;;;;51.47;45.88;;;17.50;57.10;;;;;;5004983;27;90909;-72
2022/01/09 09:35:48;;;;;;;51.88;46.22;;;17.40;57.10;;;;;;5009808;27;90082;-72
2022/01/09 09:38:14;;;;;;;51.33;46.03;;;17.50;57.10;;;;;;5012756;27;90566;-70
2022/01/09 09:40:40;;;;;;;51.25;45.85;;;17.50;57.00;;;;;;5007070;27;95126;-70
2022/01/09 09:43:06;;;;;;;52.72;46.05;;;17.50;57.00;;;;;;5013539;27;89940;-70
2022/01/09 09:45:32;;;;;;;51.22;45.80;;;17.40;57.00;;;;;;4999244;27;90454;-69
2022/01/09 09:47:57;;;;;;;51.08;45.83;;;17.50;57.20;;;;;;5009617;27;91008;-67
2022/01/09 09:50:23;;;;;;;51.08;45.78;;;17.50;57.00;;;;;;4996770;27;91984;-69
2022/01/09 09:52:49;;;;;;;50.85;45.53;;;17.60;57.20;;;;;;4991764;27;92061;-70
2022/01/09 09:55:16;;;;;;;50.53;45.33;;;17.70;57.00;;;;;;5004812;27;90355;-71
2022/01/09 09:57:42;;;;;;;51.35;45.85;;;17.80;57.10;;;;;;4986809;27;90648;-68
2022/01/09 10:00:13;;;;;;;51.17;45.78;;;17.90;56.80;;;;;;4983257;27;92158;-72
2022/01/09 10:02:44;;;;;;;51.17;45.88;;;17.90;57.10;;;;;;5014962;27;91337;-72
2022/01/09 10:05:11;;;;;;;51.45;46.03;;;18.00;56.50;;;;;;5009950;27;90140;-71
2022/01/09 10:07:37;;;;;;;51.50;46.10;;;18.10;56.50;;;;;;5015474;27;91300;-70
2022/01/09 10:10:10;;;;;;;50.53;45.35;;;18.10;56.30;;;;;;5017126;27;89810;-70
2022/01/09 10:12:36;;;;;;;51.38;46.00;;;18.10;56.50;;;;;;5003019;27;90219;-70
2022/01/09 10:15:06;;;;;;;51.20;45.80;;;18.20;56.30;;;;;;5001556;27;89512;-68
2022/01/09 10:17:32;;;;;;;51.78;46.28;;;18.20;56.30;;;;;;4999909;27;89705;-68
2022/01/09 10:20:02;;;;;;;51.17;45.88;;;18.10;56.20;;;;;;4999150;27;89940;-69
2022/01/09 10:22:33;;;;;;;51.00;45.72;;;18.10;56.10;;;;;;5011206;27;91648;-68
2022/01/09 10:25:21;;;;;;;51.37;45.87;;;18.00;56.30;;;;;;4993693;27;90480;-69
2022/01/09 10:27:49;;;;;;;51.03;45.72;;;18.00;56.20;;;;;;5002311;27;91210;-69
2022/01/09 10:30:16;;;;;;;51.13;45.72;;;18.00;56.60;;;;;;5006870;27;89819;-69
2022/01/09 10:32:41;;;;;;;51.17;45.78;;;18.00;56.30;;;;;;4988825;27;90779;-69
2022/01/09 10:35:13;;;;;;;51.53;46.10;;;18.00;56.60;;;;;;5005591;27;89745;-70
2022/01/09 10:37:41;;;;;;;51.60;46.10;;;18.00;56.50;;;;;;5011144;27;90067;-70
2022/01/09 10:40:10;;;;;;;51.00;45.70;;;18.00;56.40;;;;;;4998750;27;90463;-69
2022/01/09 10:42:37;;;;;;;51.33;45.95;;;18.00;56.60;;;;;;5001419;27;90878;-69
2022/01/09 10:45:16;;;;;;;51.20;45.90;;;17.90;56.60;;;;;;5014132;27;89696;-69
2022/01/09 10:47:41;;;;;;;51.30;45.95;;;18.00;56.60;;;;;;5003282;27;91428;-69
2022/01/09 10:50:08;;;;;;;51.63;46.25;;;18.00;57.20;;;;;;5008129;27;91659;-69
2022/01/09 10:52:38;;;;;;;51.25;45.95;;;18.00;56.50;;;;;;5001264;27;92286;-69
2022/01/09 10:55:06;;;;;;;51.63;46.13;;;18.00;56.40;;;;;;4994860;27;90382;-70
2022/01/09 10:57:35;;;;;;;51.22;45.83;;;18.00;56.50;;;;;;4972328;27;96284;-70
2022/01/09 11:00:16;;;;;;;51.35;45.97;;;18.00;56.50;;;;;;4965254;27;92532;-68
2022/01/09 11:02:45;;;;;;;51.20;45.90;;;17.90;56.60;;;;;;5004437;27;90959;-70
2022/01/09 11:05:11;;;;;;;51.42;46.10;;;17.90;56.60;;;;;;5010002;27;89379;-69
2022/01/09 11:07:37;;;;;;;51.75;46.38;;;17.90;56.80;;;;;;5018208;27;89954;-70
2022/01/09 11:10:05;;;;;;;52.10;46.53;;;18.00;57.00;;;;;;5020247;27;89403;-70
2022/01/09 11:12:42;;;;;;;51.58;46.20;;;18.00;56.40;;;;;;5015512;27;90835;-70
2022/01/09 11:15:09;;;;;;;51.70;46.28;;;18.10;56.70;;;;;;5014746;27;91499;-69
2022/01/09 11:17:35;;;;;;;52.10;46.60;;;18.20;56.70;;;;;;5020958;27;90720;-69
2022/01/09 11:20:01;;;;;;;51.60;46.20;;;18.20;56.50;;;;;;5018725;27;89745;-69
2022/01/09 11:22:28;;;;;;;52.22;46.72;;;18.30;56.40;;;;;;5018770;27;91998;-70
2022/01/09 11:25:17;;;;;;;51.90;46.40;;;18.40;56.30;;;;;;5021156;27;89372;-69
2022/01/09 11:27:51;;;;;;;51.88;46.38;;;18.50;56.30;;;;;;5017653;27;90801;-69
2022/01/09 11:30:52;;;;;;;52.35;46.75;;;18.50;56.20;;;;;;5020730;27;89999;-69
2022/01/09 11:33:21;;;;;;;51.60;46.20;;;18.60;56.10;;;;;;5019175;27;88998;-69
2022/01/09 11:36:05;;;;;;;52.03;46.50;;;18.60;55.70;;;;;;5017369;27;90580;-70
2022/01/09 11:39:11;;;;;;;52.45;46.85;;;18.70;55.60;;;;;;5023046;27;89310;-69
2022/01/09 11:41:39;;;;;;;52.03;46.50;;;18.60;55.70;;;;;;5000142;27;93630;-69
2022/01/09 11:44:08;;;;;;;52.67;46.90;;;18.70;55.50;;;;;;5021203;27;91648;-69
2022/01/09 11:46:58;;;;;;;51.65;46.25;;;18.70;55.80;;;;;;5016722;27;90667;-69
2022/01/09 11:49:48;;;;;;;51.85;46.35;;;18.70;55.80;;;;;;5014848;27;90327;-69
2022/01/09 11:52:14;;;;;;;52.25;46.55;;;18.80;55.50;;;;;;5014292;27;90019;-69
2022/01/09 11:55:00;;;;;;;52.83;46.75;;;18.70;55.80;;;;;;5016235;27;90281;-69
2022/01/09 11:57:49;;;;;;;52.33;46.78;;;18.70;55.80;;;;;;5005525;27;93682;-69
2022/01/09 12:00:34;;;;;;;51.90;46.40;;;18.60;55.70;;;;;;5019483;27;89503;-69
2022/01/09 12:03:20;;;;;;;52.00;46.50;;;18.60;55.60;;;;;;5016896;27;90206;-69
2022/01/09 12:06:08;;;;;;;51.67;46.22;;;18.60;55.70;;;;;;5018758;27;90484;-69
2022/01/09 12:08:57;;;;;;;51.85;46.30;;;18.60;55.80;;;;;;5017335;27;91053;-69
2022/01/09 12:12:01;;;;;;;51.67;46.25;;;18.70;55.70;;;;;;4993573;27;90724;-70
2022/01/09 12:14:44;;;;;;;52.15;46.55;;;18.60;55.60;;;;;;4996675;27;92081;-68
2022/01/09 12:17:31;;;;;;;52.15;46.58;;;18.60;55.80;;;;;;5004399;27;91465;-66
2022/01/09 12:20:04;;;;;;;51.72;46.33;;;18.50;55.90;;;;;;4998096;27;90027;-70
2022/01/09 12:22:53;;;;;;;52.13;46.63;;;18.50;55.70;;;;;;4997257;27;89927;-69
2022/01/09 12:25:22;;;;;;;51.92;46.42;;;18.40;56.00;;;;;;5002669;27;91981;-67
2022/01/09 12:28:10;;;;;;;52.15;46.65;;;18.40;55.90;;;;;;5005232;27;94932;-67
2022/01/09 12:30:57;;;;;;;52.05;46.55;;;18.40;56.00;;;;;;5000666;27;90884;-69
2022/01/09 12:33:25;;;;;;;52.20;46.50;;;18.30;55.90;;;;;;5011538;27;90681;-69
2022/01/09 12:36:06;;;;;;;51.70;46.25;;;18.30;56.20;;;;;;5014586;27;92149;-69